sensor_id;sensor_type;location;lat;lon;timestamp;temperature;humidity
10121;DHT22;5100;45.176;5.714;2022-10-16T00:00:45;19.00;75.00
10121;DHT22;5100;45.176;5.714;2022-10-16T00:03:12;19.00;75.00
10121;DHT22;5100;45.176;5.714;2022-10-16T00:05:40;19.00;75.00
10121;DHT22;5100;45.176;5.714;2022-10-16T00:08:07;19.00;75.10
10121;DHT22;5100;45.176;5.714;2022-10-16T00:10:35;18.90;75.00
10121;DHT22;5100;45.176;5.714;2022-10-16T00:13:03;18.90;75.00
10121;DHT22;5100;45.176;5.714;2022-10-16T00:15:30;18.90;75.00
10121;DHT22;5100;45.176;5.714;2022-10-16T00:17:56;18.90;74.90
10121;DHT22;5100;45.176;5.714;2022-10-16T00:20:22;18.90;74.80
10121;DHT22;5100;45.176;5.714;2022-10-16T00:22:49;18.90;74.80
10121;DHT22;5100;45.176;5.714;2022-10-16T00:25:15;18.90;74.80
10121;DHT22;5100;45.176;5.714;2022-10-16T00:27:41;18.90;74.50
10121;DHT22;5100;45.176;5.714;2022-10-16T00:30:08;18.90;74.40
10121;DHT22;5100;45.176;5.714;2022-10-16T00:32:34;18.90;74.30
10121;DHT22;5100;45.176;5.714;2022-10-16T00:35:00;18.90;74.50
10121;DHT22;5100;45.176;5.714;2022-10-16T00:37:26;18.90;74.50
10121;DHT22;5100;45.176;5.714;2022-10-16T00:39:52;18.80;74.50
10121;DHT22;5100;45.176;5.714;2022-10-16T00:42:18;18.80;74.60
10121;DHT22;5100;45.176;5.714;2022-10-16T00:44:56;18.80;74.60
10121;DHT22;5100;45.176;5.714;2022-10-16T00:47:28;18.80;74.90
10121;DHT22;5100;45.176;5.714;2022-10-16T00:52:31;18.80;74.90
10121;DHT22;5100;45.176;5.714;2022-10-16T00:54:58;18.80;75.00
10121;DHT22;5100;45.176;5.714;2022-10-16T00:57:25;18.80;75.20
10121;DHT22;5100;45.176;5.714;2022-10-16T00:59:51;18.80;75.50
10121;DHT22;5100;45.176;5.714;2022-10-16T01:02:17;18.80;75.70
10121;DHT22;5100;45.176;5.714;2022-10-16T01:04:47;18.80;75.80
10121;DHT22;5100;45.176;5.714;2022-10-16T01:10:06;18.80;75.90
10121;DHT22;5100;45.176;5.714;2022-10-16T01:13:06;18.80;75.80
10121;DHT22;5100;45.176;5.714;2022-10-16T01:21:08;18.70;75.90
10121;DHT22;5100;45.176;5.714;2022-10-16T01:23:59;18.70;75.80
10121;DHT22;5100;45.176;5.714;2022-10-16T01:29:25;18.70;75.80
10121;DHT22;5100;45.176;5.714;2022-10-16T01:31:57;18.70;75.80
10121;DHT22;5100;45.176;5.714;2022-10-16T01:34:33;18.70;75.60
10121;DHT22;5100;45.176;5.714;2022-10-16T01:37:05;18.70;75.60
10121;DHT22;5100;45.176;5.714;2022-10-16T01:39:35;18.70;75.70
10121;DHT22;5100;45.176;5.714;2022-10-16T01:42:08;18.70;75.70
10121;DHT22;5100;45.176;5.714;2022-10-16T01:44:36;18.70;75.60
10121;DHT22;5100;45.176;5.714;2022-10-16T01:47:04;18.70;75.70
10121;DHT22;5100;45.176;5.714;2022-10-16T01:49:33;18.70;75.60
10121;DHT22;5100;45.176;5.714;2022-10-16T01:52:04;18.70;75.60
10121;DHT22;5100;45.176;5.714;2022-10-16T01:54:33;18.60;75.60
10121;DHT22;5100;45.176;5.714;2022-10-16T01:57:02;18.60;75.80
10121;DHT22;5100;45.176;5.714;2022-10-16T01:59:32;18.60;75.80
10121;DHT22;5100;45.176;5.714;2022-10-16T02:02:01;18.60;75.70
10121;DHT22;5100;45.176;5.714;2022-10-16T02:04:34;18.60;75.60
10121;DHT22;5100;45.176;5.714;2022-10-16T02:07:02;18.60;75.60
10121;DHT22;5100;45.176;5.714;2022-10-16T02:09:30;18.60;75.80
10121;DHT22;5100;45.176;5.714;2022-10-16T02:12:00;18.60;75.60
10121;DHT22;5100;45.176;5.714;2022-10-16T02:14:29;18.60;75.60
10121;DHT22;5100;45.176;5.714;2022-10-16T02:16:55;18.60;75.60
10121;DHT22;5100;45.176;5.714;2022-10-16T02:19:22;18.60;75.70
10121;DHT22;5100;45.176;5.714;2022-10-16T02:21:54;18.60;75.70
10121;DHT22;5100;45.176;5.714;2022-10-16T02:24:43;18.60;75.70
10121;DHT22;5100;45.176;5.714;2022-10-16T02:29:51;18.50;75.80
10121;DHT22;5100;45.176;5.714;2022-10-16T02:32:24;18.50;75.80
10121;DHT22;5100;45.176;5.714;2022-10-16T02:34:56;18.50;75.80
10121;DHT22;5100;45.176;5.714;2022-10-16T02:37:27;18.50;76.00
10121;DHT22;5100;45.176;5.714;2022-10-16T02:39:55;18.50;75.90
10121;DHT22;5100;45.176;5.714;2022-10-16T02:42:28;18.50;75.90
10121;DHT22;5100;45.176;5.714;2022-10-16T02:44:54;18.50;75.80
10121;DHT22;5100;45.176;5.714;2022-10-16T02:47:20;18.50;75.70
10121;DHT22;5100;45.176;5.714;2022-10-16T02:49:46;18.50;76.10
10121;DHT22;5100;45.176;5.714;2022-10-16T02:52:12;18.50;76.10
10121;DHT22;5100;45.176;5.714;2022-10-16T02:54:37;18.50;76.00
10121;DHT22;5100;45.176;5.714;2022-10-16T02:57:04;18.50;76.30
10121;DHT22;5100;45.176;5.714;2022-10-16T02:59:30;18.50;76.40
10121;DHT22;5100;45.176;5.714;2022-10-16T03:01:56;18.40;76.40
10121;DHT22;5100;45.176;5.714;2022-10-16T03:04:22;18.40;76.30
10121;DHT22;5100;45.176;5.714;2022-10-16T03:06:48;18.40;76.20
10121;DHT22;5100;45.176;5.714;2022-10-16T03:09:14;18.40;76.10
10121;DHT22;5100;45.176;5.714;2022-10-16T03:11:40;18.40;76.20
10121;DHT22;5100;45.176;5.714;2022-10-16T03:14:06;18.40;76.20
10121;DHT22;5100;45.176;5.714;2022-10-16T03:16:33;18.40;76.10
10121;DHT22;5100;45.176;5.714;2022-10-16T03:18:59;18.40;76.30
10121;DHT22;5100;45.176;5.714;2022-10-16T03:21:25;18.40;76.10
10121;DHT22;5100;45.176;5.714;2022-10-16T03:23:51;18.40;76.10
10121;DHT22;5100;45.176;5.714;2022-10-16T03:26:18;18.40;76.10
10121;DHT22;5100;45.176;5.714;2022-10-16T03:28:43;18.40;76.10
10121;DHT22;5100;45.176;5.714;2022-10-16T03:31:09;18.40;75.90
10121;DHT22;5100;45.176;5.714;2022-10-16T03:33:35;18.30;76.00
10121;DHT22;5100;45.176;5.714;2022-10-16T03:36:02;18.30;76.00
10121;DHT22;5100;45.176;5.714;2022-10-16T03:38:28;18.30;76.10
10121;DHT22;5100;45.176;5.714;2022-10-16T03:40:55;18.30;76.00
10121;DHT22;5100;45.176;5.714;2022-10-16T03:43:21;18.30;76.00
10121;DHT22;5100;45.176;5.714;2022-10-16T03:45:47;18.30;75.90
10121;DHT22;5100;45.176;5.714;2022-10-16T03:48:13;18.30;75.90
10121;DHT22;5100;45.176;5.714;2022-10-16T03:50:39;18.30;75.90
10121;DHT22;5100;45.176;5.714;2022-10-16T03:53:05;18.30;76.00
10121;DHT22;5100;45.176;5.714;2022-10-16T03:55:31;18.20;75.90
10121;DHT22;5100;45.176;5.714;2022-10-16T03:57:57;18.20;75.80
10121;DHT22;5100;45.176;5.714;2022-10-16T04:00:23;18.20;75.80
10121;DHT22;5100;45.176;5.714;2022-10-16T04:02:50;18.20;75.70
10121;DHT22;5100;45.176;5.714;2022-10-16T04:05:16;18.20;75.70
10121;DHT22;5100;45.176;5.714;2022-10-16T04:07:42;18.20;75.70
10121;DHT22;5100;45.176;5.714;2022-10-16T04:10:08;18.20;75.70
10121;DHT22;5100;45.176;5.714;2022-10-16T04:12:34;18.10;75.70
10121;DHT22;5100;45.176;5.714;2022-10-16T04:15:00;18.10;75.60
10121;DHT22;5100;45.176;5.714;2022-10-16T04:17:27;18.10;75.50
10121;DHT22;5100;45.176;5.714;2022-10-16T04:19:53;18.10;75.50
10121;DHT22;5100;45.176;5.714;2022-10-16T04:22:19;18.10;75.70
10121;DHT22;5100;45.176;5.714;2022-10-16T04:24:46;18.10;75.70
10121;DHT22;5100;45.176;5.714;2022-10-16T04:27:12;18.10;75.60
10121;DHT22;5100;45.176;5.714;2022-10-16T04:29:38;18.10;75.40
10121;DHT22;5100;45.176;5.714;2022-10-16T04:32:04;18.00;75.30
10121;DHT22;5100;45.176;5.714;2022-10-16T04:34:30;18.00;75.30
10121;DHT22;5100;45.176;5.714;2022-10-16T04:36:56;18.00;75.20
10121;DHT22;5100;45.176;5.714;2022-10-16T04:39:22;18.00;75.00
10121;DHT22;5100;45.176;5.714;2022-10-16T04:41:48;18.00;75.00
10121;DHT22;5100;45.176;5.714;2022-10-16T04:44:14;18.00;75.00
10121;DHT22;5100;45.176;5.714;2022-10-16T04:46:40;18.00;74.90
10121;DHT22;5100;45.176;5.714;2022-10-16T04:49:06;18.00;74.90
10121;DHT22;5100;45.176;5.714;2022-10-16T04:51:32;18.00;74.90
10121;DHT22;5100;45.176;5.714;2022-10-16T04:53:59;17.90;74.90
10121;DHT22;5100;45.176;5.714;2022-10-16T04:56:25;17.90;75.00
10121;DHT22;5100;45.176;5.714;2022-10-16T04:58:51;17.90;75.00
10121;DHT22;5100;45.176;5.714;2022-10-16T05:01:17;17.90;75.00
10121;DHT22;5100;45.176;5.714;2022-10-16T05:03:43;17.90;75.00
10121;DHT22;5100;45.176;5.714;2022-10-16T05:06:09;17.90;75.10
10121;DHT22;5100;45.176;5.714;2022-10-16T05:08:36;17.90;75.30
10121;DHT22;5100;45.176;5.714;2022-10-16T05:11:02;17.90;75.40
10121;DHT22;5100;45.176;5.714;2022-10-16T05:13:28;17.90;75.30
10121;DHT22;5100;45.176;5.714;2022-10-16T05:15:54;17.90;75.20
10121;DHT22;5100;45.176;5.714;2022-10-16T05:18:20;17.80;75.20
10121;DHT22;5100;45.176;5.714;2022-10-16T05:20:46;17.80;75.10
10121;DHT22;5100;45.176;5.714;2022-10-16T05:23:12;17.80;75.10
10121;DHT22;5100;45.176;5.714;2022-10-16T05:25:38;17.80;75.30
10121;DHT22;5100;45.176;5.714;2022-10-16T05:28:04;17.80;75.20
10121;DHT22;5100;45.176;5.714;2022-10-16T05:30:30;17.80;75.10
10121;DHT22;5100;45.176;5.714;2022-10-16T05:32:57;17.80;75.20
10121;DHT22;5100;45.176;5.714;2022-10-16T05:35:23;17.80;75.20
10121;DHT22;5100;45.176;5.714;2022-10-16T05:37:49;17.80;75.20
10121;DHT22;5100;45.176;5.714;2022-10-16T05:40:16;17.80;75.20
10121;DHT22;5100;45.176;5.714;2022-10-16T05:42:42;17.80;75.10
10121;DHT22;5100;45.176;5.714;2022-10-16T05:45:10;17.80;75.20
10121;DHT22;5100;45.176;5.714;2022-10-16T05:47:36;17.70;75.20
10121;DHT22;5100;45.176;5.714;2022-10-16T05:50:03;17.70;75.20
10121;DHT22;5100;45.176;5.714;2022-10-16T05:52:30;17.70;75.10
10121;DHT22;5100;45.176;5.714;2022-10-16T05:54:56;17.70;75.20
10121;DHT22;5100;45.176;5.714;2022-10-16T05:57:22;17.70;75.30
10121;DHT22;5100;45.176;5.714;2022-10-16T05:59:48;17.70;75.30
10121;DHT22;5100;45.176;5.714;2022-10-16T06:02:15;17.70;75.30
10121;DHT22;5100;45.176;5.714;2022-10-16T06:04:41;17.70;75.20
10121;DHT22;5100;45.176;5.714;2022-10-16T06:07:07;17.70;75.20
10121;DHT22;5100;45.176;5.714;2022-10-16T06:09:33;17.70;75.30
10121;DHT22;5100;45.176;5.714;2022-10-16T06:12:00;17.60;75.30
10121;DHT22;5100;45.176;5.714;2022-10-16T06:14:26;17.60;75.20
10121;DHT22;5100;45.176;5.714;2022-10-16T06:16:52;17.60;75.10
10121;DHT22;5100;45.176;5.714;2022-10-16T06:19:18;17.60;75.10
10121;DHT22;5100;45.176;5.714;2022-10-16T06:21:44;17.60;75.20
10121;DHT22;5100;45.176;5.714;2022-10-16T06:24:10;17.60;75.30
10121;DHT22;5100;45.176;5.714;2022-10-16T06:26:37;17.60;75.20
10121;DHT22;5100;45.176;5.714;2022-10-16T06:29:04;17.60;75.20
10121;DHT22;5100;45.176;5.714;2022-10-16T06:31:30;17.70;75.20
10121;DHT22;5100;45.176;5.714;2022-10-16T06:33:59;17.70;75.10
10121;DHT22;5100;45.176;5.714;2022-10-16T06:36:26;17.70;75.10
10121;DHT22;5100;45.176;5.714;2022-10-16T06:38:52;17.70;75.30
10121;DHT22;5100;45.176;5.714;2022-10-16T06:41:21;17.70;75.40
10121;DHT22;5100;45.176;5.714;2022-10-16T06:43:47;17.70;75.20
10121;DHT22;5100;45.176;5.714;2022-10-16T06:46:16;17.70;75.10
10121;DHT22;5100;45.176;5.714;2022-10-16T06:48:43;17.70;75.00
10121;DHT22;5100;45.176;5.714;2022-10-16T06:51:11;17.70;75.00
10121;DHT22;5100;45.176;5.714;2022-10-16T06:53:40;17.80;75.10
10121;DHT22;5100;45.176;5.714;2022-10-16T06:56:13;17.80;75.00
10121;DHT22;5100;45.176;5.714;2022-10-16T06:58:40;17.80;75.00
10121;DHT22;5100;45.176;5.714;2022-10-16T07:01:06;17.80;75.10
10121;DHT22;5100;45.176;5.714;2022-10-16T07:03:36;17.80;75.20
10121;DHT22;5100;45.176;5.714;2022-10-16T07:06:04;17.90;75.10
10121;DHT22;5100;45.176;5.714;2022-10-16T07:08:32;17.90;75.40
10121;DHT22;5100;45.176;5.714;2022-10-16T07:11:12;17.90;75.40
10121;DHT22;5100;45.176;5.714;2022-10-16T07:13:40;17.90;75.40
10121;DHT22;5100;45.176;5.714;2022-10-16T07:16:12;17.90;75.30
10121;DHT22;5100;45.176;5.714;2022-10-16T07:18:38;18.00;74.40
10121;DHT22;5100;45.176;5.714;2022-10-16T07:21:11;18.00;74.10
10121;DHT22;5100;45.176;5.714;2022-10-16T07:23:37;18.00;74.00
10121;DHT22;5100;45.176;5.714;2022-10-16T07:26:05;18.10;74.00
10121;DHT22;5100;45.176;5.714;2022-10-16T07:28:32;18.10;74.00
10121;DHT22;5100;45.176;5.714;2022-10-16T07:31:11;18.10;74.10
10121;DHT22;5100;45.176;5.714;2022-10-16T07:33:38;18.10;73.90
10121;DHT22;5100;45.176;5.714;2022-10-16T07:36:05;18.10;74.10
10121;DHT22;5100;45.176;5.714;2022-10-16T07:38:31;18.10;74.20
10121;DHT22;5100;45.176;5.714;2022-10-16T07:40:59;18.10;74.20
10121;DHT22;5100;45.176;5.714;2022-10-16T07:43:26;18.10;74.30
10121;DHT22;5100;45.176;5.714;2022-10-16T07:45:53;18.10;74.50
10121;DHT22;5100;45.176;5.714;2022-10-16T07:48:22;18.10;74.60
10121;DHT22;5100;45.176;5.714;2022-10-16T07:50:49;18.10;74.70
10121;DHT22;5100;45.176;5.714;2022-10-16T07:53:15;18.20;74.60
10121;DHT22;5100;45.176;5.714;2022-10-16T07:55:41;18.20;74.80
10121;DHT22;5100;45.176;5.714;2022-10-16T07:58:07;18.20;74.70
10121;DHT22;5100;45.176;5.714;2022-10-16T08:00:35;18.20;74.40
10121;DHT22;5100;45.176;5.714;2022-10-16T08:03:05;18.20;74.30
10121;DHT22;5100;45.176;5.714;2022-10-16T08:05:32;18.30;74.00
10121;DHT22;5100;45.176;5.714;2022-10-16T08:07:58;18.30;73.70
10121;DHT22;5100;45.176;5.714;2022-10-16T08:10:26;18.40;73.30
10121;DHT22;5100;45.176;5.714;2022-10-16T08:12:53;18.40;72.70
10121;DHT22;5100;45.176;5.714;2022-10-16T08:15:20;18.40;72.40
10121;DHT22;5100;45.176;5.714;2022-10-16T08:18:02;18.50;72.10
10121;DHT22;5100;45.176;5.714;2022-10-16T08:20:29;18.70;71.80
10121;DHT22;5100;45.176;5.714;2022-10-16T08:22:55;18.80;71.30
10121;DHT22;5100;45.176;5.714;2022-10-16T08:25:23;18.90;71.20
10121;DHT22;5100;45.176;5.714;2022-10-16T08:27:49;18.90;70.70
10121;DHT22;5100;45.176;5.714;2022-10-16T08:30:16;19.00;70.20
10121;DHT22;5100;45.176;5.714;2022-10-16T08:32:42;19.00;70.20
10121;DHT22;5100;45.176;5.714;2022-10-16T08:35:09;19.00;70.20
10121;DHT22;5100;45.176;5.714;2022-10-16T08:37:37;19.00;70.00
10121;DHT22;5100;45.176;5.714;2022-10-16T08:40:04;19.00;69.60
10121;DHT22;5100;45.176;5.714;2022-10-16T08:48:26;19.10;69.50
10121;DHT22;5100;45.176;5.714;2022-10-16T08:50:54;19.10;69.40
10121;DHT22;5100;45.176;5.714;2022-10-16T08:53:36;19.10;69.30
10121;DHT22;5100;45.176;5.714;2022-10-16T08:56:02;19.10;69.20
10121;DHT22;5100;45.176;5.714;2022-10-16T08:58:30;19.10;69.30
10121;DHT22;5100;45.176;5.714;2022-10-16T09:00:59;19.10;69.20
10121;DHT22;5100;45.176;5.714;2022-10-16T09:16:58;19.20;69.10
10121;DHT22;5100;45.176;5.714;2022-10-16T09:19:39;19.30;69.30
10121;DHT22;5100;45.176;5.714;2022-10-16T09:22:14;19.30;69.30
10121;DHT22;5100;45.176;5.714;2022-10-16T09:24:41;19.30;69.20
10121;DHT22;5100;45.176;5.714;2022-10-16T09:27:14;19.30;69.20
10121;DHT22;5100;45.176;5.714;2022-10-16T09:29:40;19.40;69.10
10121;DHT22;5100;45.176;5.714;2022-10-16T09:32:15;19.40;69.00
10121;DHT22;5100;45.176;5.714;2022-10-16T09:34:47;19.40;69.40
10121;DHT22;5100;45.176;5.714;2022-10-16T09:37:18;19.50;69.60
10121;DHT22;5100;45.176;5.714;2022-10-16T09:42:26;19.50;69.90
10121;DHT22;5100;45.176;5.714;2022-10-16T09:44:53;19.60;69.70
10121;DHT22;5100;45.176;5.714;2022-10-16T09:47:23;19.60;69.50
10121;DHT22;5100;45.176;5.714;2022-10-16T09:50:01;19.60;70.00
10121;DHT22;5100;45.176;5.714;2022-10-16T09:52:30;19.70;70.00
10121;DHT22;5100;45.176;5.714;2022-10-16T09:55:02;19.70;70.00
10121;DHT22;5100;45.176;5.714;2022-10-16T09:57:28;19.80;70.00
10121;DHT22;5100;45.176;5.714;2022-10-16T09:59:57;19.80;70.30
10121;DHT22;5100;45.176;5.714;2022-10-16T10:02:36;19.80;70.20
10121;DHT22;5100;45.176;5.714;2022-10-16T10:05:05;19.80;69.90
10121;DHT22;5100;45.176;5.714;2022-10-16T10:07:37;19.90;69.40
10121;DHT22;5100;45.176;5.714;2022-10-16T10:10:18;19.90;69.30
10121;DHT22;5100;45.176;5.714;2022-10-16T10:12:45;19.90;69.50
10121;DHT22;5100;45.176;5.714;2022-10-16T10:15:12;19.90;69.40
10121;DHT22;5100;45.176;5.714;2022-10-16T10:17:50;20.00;69.20
10121;DHT22;5100;45.176;5.714;2022-10-16T10:20:34;20.00;69.30
10121;DHT22;5100;45.176;5.714;2022-10-16T10:23:22;20.00;69.10
10121;DHT22;5100;45.176;5.714;2022-10-16T10:26:15;20.00;68.80
10121;DHT22;5100;45.176;5.714;2022-10-16T10:28:46;20.10;69.00
10121;DHT22;5100;45.176;5.714;2022-10-16T10:37:23;20.10;69.40
10121;DHT22;5100;45.176;5.714;2022-10-16T10:40:03;20.10;69.10
10121;DHT22;5100;45.176;5.714;2022-10-16T10:42:51;20.20;69.10
10121;DHT22;5100;45.176;5.714;2022-10-16T10:45:27;20.20;69.10
10121;DHT22;5100;45.176;5.714;2022-10-16T10:48:24;20.20;69.30
10121;DHT22;5100;45.176;5.714;2022-10-16T10:51:04;20.20;69.20
10121;DHT22;5100;45.176;5.714;2022-10-16T11:02:14;20.30;69.20
10121;DHT22;5100;45.176;5.714;2022-10-16T11:06:56;20.40;69.10
10121;DHT22;5100;45.176;5.714;2022-10-16T11:09:48;20.40;69.50
10121;DHT22;5100;45.176;5.714;2022-10-16T11:12:22;20.50;69.70
10121;DHT22;5100;45.176;5.714;2022-10-16T11:15:05;20.50;69.70
10121;DHT22;5100;45.176;5.714;2022-10-16T11:17:52;20.50;69.20
10121;DHT22;5100;45.176;5.714;2022-10-16T11:20:32;20.60;68.60
10121;DHT22;5100;45.176;5.714;2022-10-16T11:26:04;20.60;68.30
10121;DHT22;5100;45.176;5.714;2022-10-16T11:28:50;20.70;68.30
10121;DHT22;5100;45.176;5.714;2022-10-16T11:33:48;20.70;68.40
10121;DHT22;5100;45.176;5.714;2022-10-16T11:36:23;20.80;68.00
10121;DHT22;5100;45.176;5.714;2022-10-16T11:44:36;20.90;67.20
10121;DHT22;5100;45.176;5.714;2022-10-16T11:47:09;21.00;67.70
10121;DHT22;5100;45.176;5.714;2022-10-16T11:49:39;21.00;68.70
10121;DHT22;5100;45.176;5.714;2022-10-16T11:52:25;21.10;68.30
10121;DHT22;5100;45.176;5.714;2022-10-16T11:54:59;21.10;68.10
10121;DHT22;5100;45.176;5.714;2022-10-16T11:57:33;21.20;67.90
10121;DHT22;5100;45.176;5.714;2022-10-16T12:00:07;21.20;67.90
10121;DHT22;5100;45.176;5.714;2022-10-16T12:08:14;21.30;66.50
10121;DHT22;5100;45.176;5.714;2022-10-16T12:10:43;21.40;65.00
10121;DHT22;5100;45.176;5.714;2022-10-16T12:18:44;21.50;64.50
10121;DHT22;5100;45.176;5.714;2022-10-16T12:21:12;21.50;64.00
10121;DHT22;5100;45.176;5.714;2022-10-16T12:23:50;21.60;63.00
10121;DHT22;5100;45.176;5.714;2022-10-16T12:26:28;21.60;63.80
10121;DHT22;5100;45.176;5.714;2022-10-16T12:28:55;21.60;65.10
10121;DHT22;5100;45.176;5.714;2022-10-16T12:31:22;21.60;65.30
10121;DHT22;5100;45.176;5.714;2022-10-16T12:33:59;21.60;64.60
10121;DHT22;5100;45.176;5.714;2022-10-16T12:36:36;21.70;64.30
10121;DHT22;5100;45.176;5.714;2022-10-16T12:39:03;21.70;63.40
10121;DHT22;5100;45.176;5.714;2022-10-16T12:41:32;21.70;63.60
10121;DHT22;5100;45.176;5.714;2022-10-16T12:44:01;21.80;63.90
10121;DHT22;5100;45.176;5.714;2022-10-16T12:51:38;21.80;62.70
10121;DHT22;5100;45.176;5.714;2022-10-16T13:18:51;22.20;61.50
10121;DHT22;5100;45.176;5.714;2022-10-16T13:27:29;22.20;60.70
10121;DHT22;5100;45.176;5.714;2022-10-16T13:30:20;22.30;61.00
10121;DHT22;5100;45.176;5.714;2022-10-16T13:32:50;22.30;60.90
10121;DHT22;5100;45.176;5.714;2022-10-16T13:35:29;22.30;60.50
10121;DHT22;5100;45.176;5.714;2022-10-16T13:38:12;22.30;60.30
10121;DHT22;5100;45.176;5.714;2022-10-16T13:41:05;22.40;60.40
10121;DHT22;5100;45.176;5.714;2022-10-16T13:43:35;22.40;60.40
10121;DHT22;5100;45.176;5.714;2022-10-16T13:46:15;22.40;61.00
10121;DHT22;5100;45.176;5.714;2022-10-16T13:48:43;22.40;60.90
10121;DHT22;5100;45.176;5.714;2022-10-16T13:51:14;22.50;60.30
10121;DHT22;5100;45.176;5.714;2022-10-16T13:53:41;22.50;60.20
10121;DHT22;5100;45.176;5.714;2022-10-16T13:56:12;22.50;61.00
10121;DHT22;5100;45.176;5.714;2022-10-16T13:58:38;22.50;61.00
10121;DHT22;5100;45.176;5.714;2022-10-16T14:01:27;22.50;61.50
10121;DHT22;5100;45.176;5.714;2022-10-16T14:03:52;22.50;60.00
10121;DHT22;5100;45.176;5.714;2022-10-16T14:06:20;22.50;61.20
10121;DHT22;5100;45.176;5.714;2022-10-16T14:11:26;22.50;59.50
10121;DHT22;5100;45.176;5.714;2022-10-16T14:13:52;22.50;60.40
10121;DHT22;5100;45.176;5.714;2022-10-16T14:16:25;22.60;59.80
10121;DHT22;5100;45.176;5.714;2022-10-16T14:21:22;22.60;60.30
10121;DHT22;5100;45.176;5.714;2022-10-16T14:23:48;22.60;59.30
10121;DHT22;5100;45.176;5.714;2022-10-16T14:26:17;22.60;59.80
10121;DHT22;5100;45.176;5.714;2022-10-16T14:28:45;22.60;59.60
10121;DHT22;5100;45.176;5.714;2022-10-16T14:31:33;22.60;59.30
10121;DHT22;5100;45.176;5.714;2022-10-16T14:34:02;22.70;59.30
10121;DHT22;5100;45.176;5.714;2022-10-16T14:36:28;22.70;58.70
10121;DHT22;5100;45.176;5.714;2022-10-16T14:39:06;22.70;59.10
10121;DHT22;5100;45.176;5.714;2022-10-16T14:41:46;22.70;58.20
10121;DHT22;5100;45.176;5.714;2022-10-16T14:44:12;22.70;57.60
10121;DHT22;5100;45.176;5.714;2022-10-16T14:46:41;22.70;58.50
10121;DHT22;5100;45.176;5.714;2022-10-16T14:51:38;22.80;58.60
10121;DHT22;5100;45.176;5.714;2022-10-16T14:54:08;22.80;58.20
10121;DHT22;5100;45.176;5.714;2022-10-16T14:56:55;22.80;58.20
10121;DHT22;5100;45.176;5.714;2022-10-16T14:59:30;22.80;57.50
10121;DHT22;5100;45.176;5.714;2022-10-16T15:01:58;22.80;57.70
10121;DHT22;5100;45.176;5.714;2022-10-16T15:04:24;22.80;59.70
10121;DHT22;5100;45.176;5.714;2022-10-16T15:06:50;22.80;59.50
10121;DHT22;5100;45.176;5.714;2022-10-16T15:09:16;22.80;60.10
10121;DHT22;5100;45.176;5.714;2022-10-16T15:11:43;22.80;58.70
10121;DHT22;5100;45.176;5.714;2022-10-16T15:14:12;22.80;59.50
10121;DHT22;5100;45.176;5.714;2022-10-16T15:16:39;22.80;60.10
10121;DHT22;5100;45.176;5.714;2022-10-16T15:19:05;22.80;58.90
10121;DHT22;5100;45.176;5.714;2022-10-16T15:21:32;22.80;59.10
10121;DHT22;5100;45.176;5.714;2022-10-16T15:24:00;22.80;58.40
10121;DHT22;5100;45.176;5.714;2022-10-16T15:26:28;22.80;57.20
10121;DHT22;5100;45.176;5.714;2022-10-16T15:28:55;22.80;57.40
10121;DHT22;5100;45.176;5.714;2022-10-16T15:31:21;22.80;57.10
10121;DHT22;5100;45.176;5.714;2022-10-16T15:33:52;22.80;58.00
10121;DHT22;5100;45.176;5.714;2022-10-16T15:36:33;22.80;59.10
10121;DHT22;5100;45.176;5.714;2022-10-16T15:39:00;22.80;57.10
10121;DHT22;5100;45.176;5.714;2022-10-16T15:41:26;22.80;57.10
10121;DHT22;5100;45.176;5.714;2022-10-16T15:43:52;22.70;56.80
10121;DHT22;5100;45.176;5.714;2022-10-16T15:46:20;22.70;57.50
10121;DHT22;5100;45.176;5.714;2022-10-16T15:48:48;22.80;56.60
10121;DHT22;5100;45.176;5.714;2022-10-16T15:51:14;22.80;56.60
10121;DHT22;5100;45.176;5.714;2022-10-16T15:53:40;22.80;57.50
10121;DHT22;5100;45.176;5.714;2022-10-16T15:56:08;22.70;57.90
10121;DHT22;5100;45.176;5.714;2022-10-16T15:58:34;22.80;57.40
10121;DHT22;5100;45.176;5.714;2022-10-16T16:01:01;22.70;57.10
10121;DHT22;5100;45.176;5.714;2022-10-16T16:03:30;22.70;56.80
10121;DHT22;5100;45.176;5.714;2022-10-16T16:05:56;22.70;56.60
10121;DHT22;5100;45.176;5.714;2022-10-16T16:08:22;22.70;56.70
10121;DHT22;5100;45.176;5.714;2022-10-16T16:11:09;22.70;56.60
10121;DHT22;5100;45.176;5.714;2022-10-16T16:13:35;22.70;57.20
10121;DHT22;5100;45.176;5.714;2022-10-16T16:16:13;22.70;57.40
10121;DHT22;5100;45.176;5.714;2022-10-16T16:18:39;22.70;57.00
10121;DHT22;5100;45.176;5.714;2022-10-16T16:21:06;22.70;56.80
10121;DHT22;5100;45.176;5.714;2022-10-16T16:23:32;22.70;56.80
10121;DHT22;5100;45.176;5.714;2022-10-16T16:26:14;22.60;57.70
10121;DHT22;5100;45.176;5.714;2022-10-16T16:28:42;22.60;57.00
10121;DHT22;5100;45.176;5.714;2022-10-16T16:31:15;22.60;56.90
10121;DHT22;5100;45.176;5.714;2022-10-16T16:33:41;22.60;56.70
10121;DHT22;5100;45.176;5.714;2022-10-16T16:36:07;22.60;56.90
10121;DHT22;5100;45.176;5.714;2022-10-16T16:38:33;22.60;57.00
10121;DHT22;5100;45.176;5.714;2022-10-16T16:41:14;22.60;57.10
10121;DHT22;5100;45.176;5.714;2022-10-16T16:43:40;22.60;57.20
10121;DHT22;5100;45.176;5.714;2022-10-16T16:46:06;22.60;57.30
10121;DHT22;5100;45.176;5.714;2022-10-16T16:48:32;22.60;57.50
10121;DHT22;5100;45.176;5.714;2022-10-16T16:51:05;22.60;57.40
10121;DHT22;5100;45.176;5.714;2022-10-16T16:53:36;22.60;57.40
10121;DHT22;5100;45.176;5.714;2022-10-16T16:56:13;22.50;57.50
10121;DHT22;5100;45.176;5.714;2022-10-16T16:58:40;22.50;57.50
10121;DHT22;5100;45.176;5.714;2022-10-16T17:01:06;22.50;57.60
10121;DHT22;5100;45.176;5.714;2022-10-16T17:03:35;22.50;57.60
10121;DHT22;5100;45.176;5.714;2022-10-16T17:06:04;22.50;57.80
10121;DHT22;5100;45.176;5.714;2022-10-16T17:08:31;22.50;57.80
10121;DHT22;5100;45.176;5.714;2022-10-16T17:10:58;22.50;57.80
10121;DHT22;5100;45.176;5.714;2022-10-16T17:13:26;22.40;57.80
10121;DHT22;5100;45.176;5.714;2022-10-16T17:15:53;22.40;57.80
10121;DHT22;5100;45.176;5.714;2022-10-16T17:18:21;22.40;57.90
10121;DHT22;5100;45.176;5.714;2022-10-16T17:20:47;22.40;58.00
10121;DHT22;5100;45.176;5.714;2022-10-16T17:23:15;22.40;57.90
10121;DHT22;5100;45.176;5.714;2022-10-16T17:25:41;22.40;58.00
10121;DHT22;5100;45.176;5.714;2022-10-16T17:28:09;22.40;58.00
10121;DHT22;5100;45.176;5.714;2022-10-16T17:30:40;22.30;58.10
10121;DHT22;5100;45.176;5.714;2022-10-16T17:33:07;22.40;58.20
10121;DHT22;5100;45.176;5.714;2022-10-16T17:38:03;22.30;58.30
10121;DHT22;5100;45.176;5.714;2022-10-16T17:40:29;22.30;58.30
10121;DHT22;5100;45.176;5.714;2022-10-16T17:42:55;22.30;58.30
10121;DHT22;5100;45.176;5.714;2022-10-16T17:45:21;22.30;58.30
10121;DHT22;5100;45.176;5.714;2022-10-16T17:47:47;22.30;58.30
10121;DHT22;5100;45.176;5.714;2022-10-16T17:50:14;22.30;58.40
10121;DHT22;5100;45.176;5.714;2022-10-16T17:52:40;22.30;58.30
10121;DHT22;5100;45.176;5.714;2022-10-16T17:55:06;22.20;58.30
10121;DHT22;5100;45.176;5.714;2022-10-16T17:57:33;22.20;58.30
10121;DHT22;5100;45.176;5.714;2022-10-16T17:59:59;22.20;58.40
10121;DHT22;5100;45.176;5.714;2022-10-16T18:02:30;22.20;58.50